createdAt,value
2023-01-30T00:01:39.250Z,21.05
2023-01-30T00:06:46.718Z,25.95
2023-01-30T00:11:51.943Z,25.88
2023-01-30T00:16:56.817Z,33.90
2023-01-30T00:22:04.199Z,40.88
2023-01-30T00:27:09.039Z,58.58
2023-01-30T00:32:14.017Z,44.72
2023-01-30T00:37:21.425Z,30.17
2023-01-30T00:42:38.504Z,39.10
2023-01-30T00:47:43.499Z,37.60
2023-01-30T00:52:51.420Z,41.80
2023-01-30T00:57:56.105Z,35.45
2023-01-30T01:03:00.803Z,30.30
2023-01-30T01:08:08.465Z,22.95
2023-01-30T01:13:13.494Z,31.92
2023-01-30T01:18:18.264Z,31.38
2023-01-30T01:23:25.780Z,25.17
2023-01-30T01:28:30.583Z,42.33
2023-01-30T01:33:35.739Z,43.63
2023-01-30T01:38:45.160Z,58.20
2023-01-30T01:44:07.636Z,33.28
2023-01-30T01:49:17.179Z,47.70
2023-01-30T01:54:28.142Z,40.83
2023-01-30T01:59:34.497Z,36.25
2023-01-30T02:04:52.413Z,54.47
2023-01-30T02:10:01.137Z,69.15
2023-01-30T02:15:06.006Z,41.95
2023-01-30T02:20:14.131Z,56.63
2023-01-30T02:25:45.282Z,32.35
2023-01-30T02:36:03.857Z,23.05
2023-01-30T02:41:14.693Z,76.03
2023-01-30T02:46:21.706Z,28.52
2023-01-30T02:51:31.797Z,69.57
2023-01-30T02:56:47.193Z,63.78
2023-01-30T03:02:06.872Z,54.00
2023-01-30T03:07:20.714Z,62.60
2023-01-30T03:12:29.266Z,32.40
2023-01-30T03:17:35.048Z,43.38
2023-01-30T03:22:42.655Z,38.55
2023-01-30T03:27:48.195Z,24.08
2023-01-30T03:32:52.991Z,18.55
2023-01-30T03:38:02.824Z,21.17
2023-01-30T03:43:08.067Z,22.17
2023-01-30T03:48:12.801Z,20.10
2023-01-30T03:53:20.177Z,19.05
2023-01-30T03:58:24.937Z,16.92
2023-01-30T04:03:29.730Z,17.15
2023-01-30T04:08:37.361Z,14.40
2023-01-30T04:13:42.179Z,17.00
2023-01-30T04:18:47.239Z,13.80
2023-01-30T04:23:54.771Z,16.95
2023-01-30T04:28:59.587Z,20.25
2023-01-30T04:34:04.463Z,20.75
2023-01-30T04:39:11.933Z,31.70
2023-01-30T04:44:17.207Z,45.88
2023-01-30T04:49:21.909Z,39.95
2023-01-30T04:54:29.598Z,24.63
2023-01-30T04:59:34.407Z,19.50
2023-01-30T05:04:39.370Z,18.25
2023-01-30T05:09:49.002Z,14.75
2023-01-30T05:14:53.856Z,13.00
2023-01-30T05:19:58.736Z,15.75
2023-01-30T05:25:06.251Z,20.95
2023-01-30T05:30:11.808Z,17.13
2023-01-30T05:35:16.990Z,19.10
2023-01-30T05:40:36.851Z,14.40
2023-01-30T05:45:44.723Z,17.10
2023-01-30T05:50:49.802Z,22.08
2023-01-30T05:55:58.305Z,20.88
2023-01-30T06:01:30.655Z,23.20
2023-01-30T06:06:35.691Z,17.95
2023-01-30T06:11:40.891Z,15.85
2023-01-30T06:16:48.411Z,17.85
2023-01-30T06:21:53.414Z,20.83
2023-01-30T06:26:58.526Z,22.90
2023-01-30T06:32:06.109Z,21.92
2023-01-30T06:37:13.523Z,18.17
2023-01-30T06:42:19.929Z,24.45
2023-01-30T06:47:27.471Z,18.38
2023-01-30T06:52:34.021Z,22.60
2023-01-30T06:57:38.829Z,19.48
2023-01-30T07:02:46.477Z,16.52
2023-01-30T07:07:51.606Z,20.05
2023-01-30T07:12:56.559Z,18.65
2023-01-30T07:18:04.154Z,20.73
2023-01-30T07:23:09.018Z,18.38
2023-01-30T07:28:13.868Z,22.17
2023-01-30T07:33:21.807Z,19.42
2023-01-30T07:38:26.590Z,13.70
2023-01-30T07:43:31.349Z,19.63
2023-01-30T07:48:38.800Z,25.65
2023-01-30T07:53:43.867Z,18.33
2023-01-30T07:58:48.999Z,12.63
2023-01-30T08:03:57.031Z,17.38
2023-01-30T08:09:01.907Z,15.32
2023-01-30T08:14:06.798Z,13.07
2023-01-30T08:19:14.280Z,17.05
2023-01-30T08:24:19.284Z,11.60
2023-01-30T08:29:24.086Z,14.07
2023-01-30T08:34:31.639Z,14.57
2023-01-30T08:39:37.350Z,21.33
2023-01-30T08:44:42.182Z,15.07
2023-01-30T08:49:51.618Z,12.85
2023-01-30T08:54:57.856Z,32.15
2023-01-30T09:00:02.756Z,40.22
2023-01-30T09:05:13.217Z,22.77
2023-01-30T09:15:23.295Z,10.50
2023-01-30T09:20:30.943Z,14.02
2023-01-30T09:25:37.069Z,12.85
2023-01-30T09:30:55.676Z,16.35
2023-01-30T09:36:04.016Z,26.63
2023-01-30T09:41:38.564Z,30.88
2023-01-30T09:52:33.982Z,22.08
2023-01-30T09:58:00.981Z,39.05
2023-01-30T10:03:09.547Z,27.38
2023-01-30T10:08:31.697Z,40.30
2023-01-30T10:13:42.182Z,28.98
2023-01-30T10:19:08.176Z,20.90
2023-01-30T10:24:22.579Z,16.77
2023-01-30T10:29:38.485Z,53.38
2023-01-30T10:34:44.286Z,32.95
2023-01-30T10:40:05.449Z,27.27
2023-01-30T10:45:21.211Z,23.00
2023-01-30T10:50:29.460Z,15.93
2023-01-30T10:55:51.100Z,16.30
2023-01-30T11:01:02.867Z,14.98
2023-01-30T11:06:14.129Z,19.92
2023-01-30T11:11:30.712Z,39.15
2023-01-30T11:16:36.657Z,28.83
2023-01-30T11:21:44.718Z,93.18
2023-01-30T11:26:53.319Z,96.88
2023-01-30T11:31:58.851Z,16.30
2023-01-30T11:37:17.250Z,69.65
2023-01-30T11:42:27.648Z,43.72
2023-01-30T11:52:41.226Z,48.67
2023-01-30T11:57:50.949Z,17.45
2023-01-30T12:02:56.887Z,191.55
2023-01-30T12:08:15.683Z,63.28
2023-01-30T12:13:25.741Z,23.23
2023-01-30T12:18:33.435Z,29.70
2023-01-30T12:23:43.708Z,13.20
2023-01-30T12:33:56.934Z,11.60
2023-01-30T12:39:08.351Z,13.90
2023-01-30T12:44:29.779Z,19.65
2023-01-30T12:49:42.014Z,14.07
2023-01-30T12:54:54.668Z,12.80
2023-01-30T13:00:07.296Z,17.08
2023-01-30T13:05:22.924Z,13.77
2023-01-30T13:10:32.775Z,12.82
2023-01-30T13:15:41.813Z,18.92
2023-01-30T13:20:56.746Z,21.40
2023-01-30T13:26:07.339Z,21.05
2023-01-30T13:31:21.778Z,19.73
2023-01-30T13:36:41.915Z,23.20
2023-01-30T13:41:49.841Z,32.90
2023-01-30T13:46:56.424Z,20.58
2023-01-30T13:52:06.317Z,24.10
2023-01-30T13:57:17.512Z,32.72
2023-01-30T14:02:23.498Z,31.95
2023-01-30T14:07:35.816Z,35.75
2023-01-30T14:12:46.165Z,36.13
2023-01-30T14:22:58.987Z,23.90
2023-01-30T14:28:18.723Z,17.05
2023-01-30T14:33:37.110Z,17.38
2023-01-30T14:38:49.014Z,23.95
2023-01-30T14:44:06.013Z,20.90
2023-01-30T14:49:32.358Z,63.20
2023-01-30T14:54:43.077Z,170.82
2023-01-30T15:00:03.191Z,51.30
2023-01-30T15:05:18.822Z,53.80
2023-01-30T15:10:38.572Z,38.72
2023-01-30T15:15:48.922Z,40.00
2023-01-30T15:26:12.329Z,65.43
2023-01-30T15:31:22.844Z,55.13
2023-01-30T15:36:30.372Z,66.63
2023-01-30T15:41:43.105Z,51.25
2023-01-30T15:46:57.205Z,40.30
2023-01-30T15:52:04.428Z,48.90
2023-01-30T15:57:21.283Z,39.25
2023-01-30T16:02:29.406Z,54.03
2023-01-30T16:07:35.364Z,40.53
2023-01-30T16:12:42.827Z,36.55
2023-01-30T16:17:49.700Z,38.80
2023-01-30T16:22:54.762Z,33.30
2023-01-30T16:28:03.050Z,34.72
2023-01-30T16:33:13.538Z,33.42
2023-01-30T16:38:34.960Z,39.17
2023-01-30T16:43:45.018Z,51.00
2023-01-30T16:48:50.283Z,44.67
2023-01-30T16:53:58.752Z,46.97
2023-01-30T16:59:08.218Z,61.67
2023-01-30T17:04:21.087Z,45.93
2023-01-30T17:09:37.850Z,44.03
2023-01-30T17:14:45.575Z,64.35
2023-01-30T17:19:51.210Z,62.10
2023-01-30T17:25:04.290Z,26.73
2023-01-30T17:30:16.186Z,31.33
2023-01-30T17:35:21.686Z,44.03
2023-01-30T17:40:30.773Z,37.35
2023-01-30T17:45:38.535Z,34.83
2023-01-30T17:50:43.435Z,35.20
2023-01-30T17:55:48.445Z,39.45
2023-01-30T18:00:56.031Z,82.18
2023-01-30T18:06:01.019Z,57.70
2023-01-30T18:11:05.761Z,100.35
2023-01-30T18:16:16.073Z,83.43
2023-01-30T18:21:22.455Z,79.95
2023-01-30T18:26:30.751Z,80.82
2023-01-30T18:31:49.685Z,89.75
2023-01-30T18:37:02.603Z,95.90
2023-01-30T18:42:08.379Z,133.88
2023-01-30T18:52:34.311Z,53.95
2023-01-30T18:57:39.085Z,55.63
2023-01-30T19:08:05.041Z,47.67
2023-01-30T19:13:22.127Z,39.95
2023-01-30T19:34:50.790Z,41.35
2023-01-30T19:39:56.004Z,40.15
2023-01-30T19:45:15.690Z,44.13
2023-01-30T19:50:23.144Z,45.28
2023-01-30T19:55:28.051Z,39.70
2023-01-30T20:00:39.002Z,38.90
2023-01-30T20:05:46.423Z,38.42
2023-01-30T20:10:51.136Z,31.77
2023-01-30T20:15:56.833Z,31.35
2023-01-30T20:21:14.728Z,48.38
2023-01-30T20:26:26.296Z,59.20
2023-01-30T20:31:31.695Z,65.07
2023-01-30T20:37:00.409Z,86.55
2023-01-30T20:42:17.364Z,99.93
2023-01-30T20:52:42.591Z,118.05
2023-01-30T20:57:50.180Z,94.78
2023-01-30T21:02:55.389Z,102.22
2023-01-30T21:19:56.225Z,39.03
2023-01-30T21:25:08.456Z,41.25
2023-01-30T21:30:21.044Z,40.78
2023-01-30T21:35:46.206Z,39.55
2023-01-30T21:41:06.388Z,42.50
2023-01-30T21:46:11.395Z,38.25
2023-01-30T21:51:19.070Z,42.65
2023-01-30T21:56:23.976Z,58.00
2023-01-30T22:01:30.928Z,48.75
2023-01-30T22:06:49.233Z,51.25
2023-01-30T22:11:55.116Z,53.65
2023-01-30T22:17:00.051Z,56.80
2023-01-30T22:22:07.680Z,72.55
2023-01-30T22:27:12.616Z,65.30
2023-01-30T22:32:17.377Z,74.07
2023-01-30T22:37:24.780Z,76.15
2023-01-30T22:42:29.556Z,101.45
2023-01-30T22:47:34.379Z,73.03
2023-01-30T22:52:54.023Z,75.03
2023-01-30T22:58:01.329Z,144.63
2023-01-30T23:03:06.320Z,141.07
2023-01-30T23:08:32.147Z,140.43
2023-01-30T23:13:40.305Z,95.57
2023-01-30T23:18:57.407Z,79.35
2023-01-30T23:24:03.194Z,75.25
2023-01-30T23:29:18.931Z,88.32
2023-01-30T23:34:27.058Z,67.68
2023-01-30T23:39:32.122Z,69.93
2023-01-30T23:44:42.984Z,61.47
2023-01-30T23:50:00.153Z,68.10
